Karlovy Vary, Czech Republic
Current Conditions -  °F | °C
As of 6:30 PM on Thursday 23 Oct 2014 (Local Time) from LKKV Reporting Station
Broken Clouds Broken Clouds  
Wind Chill: 43°   Ceiling: 2300
Heat Index: 43°   Visibility: 6mi
Dew Point: 41°   Wind: 2mph
Humidity: 93%   Direction: NA
Pressure: 30.18"   Gusts: NA
Location:  50.24°N, 12.87°E
Report Text: LKKV 231630Z VRB02KT 9999 BKN023 06/05 Q1022
Loading
Personal Weather Stations






























Interactive Weather Map
Tropical Storm Tracking
New forecast layout! Learn more

10-Day Weather Forecast

Advertisements
Track Severe Weather on mobile